createdAt,value
2018-08-22T00:01:14.599Z,25.93
2018-08-22T00:03:43.010Z,25.81
2018-08-22T00:06:11.467Z,25.69
2018-08-22T00:08:42.828Z,25.67
2018-08-22T00:11:12.596Z,25.66
2018-08-22T00:13:41.386Z,25.67
2018-08-22T00:16:09.812Z,25.68
2018-08-22T00:18:38.527Z,25.76
2018-08-22T00:21:06.906Z,25.74
2018-08-22T00:23:35.349Z,25.74
2018-08-22T00:26:03.924Z,25.63
2018-08-22T00:28:32.373Z,25.59
2018-08-22T00:31:00.836Z,25.55
2018-08-22T00:33:29.451Z,25.50
2018-08-22T00:35:57.918Z,25.53
2018-08-22T00:38:26.324Z,25.56
2018-08-22T00:40:54.871Z,25.46
2018-08-22T00:43:23.279Z,25.33
2018-08-22T00:45:51.700Z,25.44
2018-08-22T00:48:20.495Z,25.41
2018-08-22T00:50:48.932Z,25.41
2018-08-22T00:53:17.410Z,25.31
2018-08-22T00:55:46.078Z,25.42
2018-08-22T00:58:14.485Z,25.28
2018-08-22T01:00:42.942Z,25.35
2018-08-22T01:03:11.394Z,25.29
2018-08-22T01:05:39.838Z,25.27
2018-08-22T01:08:08.288Z,25.19
2018-08-22T01:10:36.706Z,25.08
2018-08-22T01:13:05.215Z,25.02
2018-08-22T01:15:33.754Z,25.06
2018-08-22T01:18:02.430Z,24.89
2018-08-22T01:20:30.967Z,24.77
2018-08-22T01:22:59.364Z,24.75
2018-08-22T01:25:27.860Z,24.72
2018-08-22T01:27:56.306Z,24.67
2018-08-22T01:30:25.001Z,24.56
2018-08-22T01:32:53.440Z,24.45
2018-08-22T01:35:21.887Z,24.35
2018-08-22T01:37:50.440Z,24.24
2018-08-22T01:40:18.865Z,24.26
2018-08-22T01:42:47.551Z,24.10
2018-08-22T01:45:16.048Z,23.99
2018-08-22T01:47:44.623Z,23.92
2018-08-22T01:50:13.048Z,23.83
2018-08-22T01:52:41.575Z,23.85
2018-08-22T01:55:10.365Z,23.74
2018-08-22T01:57:38.756Z,23.63
2018-08-22T02:00:07.782Z,23.60
2018-08-22T02:02:36.375Z,23.57
2018-08-22T02:05:05.338Z,23.66
2018-08-22T02:07:34.120Z,23.57
2018-08-22T02:10:02.763Z,23.60
2018-08-22T02:12:31.234Z,23.63
2018-08-22T02:14:59.756Z,23.58
2018-08-22T02:17:28.795Z,23.62
2018-08-22T02:19:57.230Z,23.53
2018-08-22T02:22:25.652Z,23.42
2018-08-22T02:24:54.073Z,23.45
2018-08-22T02:27:22.518Z,23.45
2018-08-22T02:29:51.204Z,23.36
2018-08-22T02:32:19.650Z,23.33
2018-08-22T02:34:48.064Z,23.33
2018-08-22T02:37:17.427Z,23.31
2018-08-22T02:39:45.859Z,23.25
2018-08-22T02:42:14.659Z,23.15
2018-08-22T02:44:43.104Z,23.19
2018-08-22T02:47:11.803Z,23.06
2018-08-22T02:49:40.258Z,23.02
2018-08-22T02:52:08.711Z,24.03
2018-08-22T02:54:37.327Z,24.17
2018-08-22T02:57:05.764Z,24.62
2018-08-22T02:59:34.202Z,24.40
2018-08-22T03:02:02.643Z,23.57
2018-08-22T03:04:31.329Z,24.27
2018-08-22T03:06:59.877Z,24.87
2018-08-22T03:09:28.305Z,25.15
2018-08-22T03:11:56.756Z,24.01
2018-08-22T03:14:25.211Z,24.32
2018-08-22T03:16:53.629Z,24.44
2018-08-22T03:19:22.080Z,24.49
2018-08-22T03:21:50.748Z,24.51
2018-08-22T03:24:19.292Z,24.65
2018-08-22T03:26:47.821Z,24.90
2018-08-22T03:29:16.247Z,24.80
2018-08-22T03:31:44.672Z,24.91
2018-08-22T03:34:13.163Z,24.22
2018-08-22T03:36:41.584Z,24.92
2018-08-22T03:39:10.278Z,24.10
2018-08-22T03:41:39.457Z,23.95
2018-08-22T03:44:07.941Z,23.32
2018-08-22T03:46:36.372Z,23.03
2018-08-22T03:49:04.801Z,22.87
2018-08-22T03:51:33.212Z,22.94
2018-08-22T03:54:01.668Z,22.87
2018-08-22T03:56:30.532Z,22.77
2018-08-22T03:58:58.965Z,22.78
2018-08-22T04:01:27.419Z,22.83
2018-08-22T04:03:56.200Z,22.68
2018-08-22T04:06:24.664Z,22.67
2018-08-22T04:08:53.941Z,22.68
2018-08-22T04:11:22.325Z,22.62
2018-08-22T04:13:50.824Z,22.58
2018-08-22T04:16:19.253Z,22.43
2018-08-22T04:18:47.687Z,22.52
2018-08-22T04:21:16.126Z,22.66
2018-08-22T04:23:44.628Z,22.60
2018-08-22T04:26:13.063Z,22.61
2018-08-22T04:28:41.492Z,22.71
2018-08-22T04:31:09.939Z,22.85
2018-08-22T04:33:38.339Z,22.75
2018-08-22T04:36:06.789Z,22.76
2018-08-22T04:38:35.471Z,22.91
2018-08-22T04:41:03.873Z,22.93
2018-08-22T04:43:32.334Z,22.82
2018-08-22T04:46:00.740Z,22.94
2018-08-22T04:48:29.186Z,22.88
2018-08-22T04:50:57.656Z,22.88
2018-08-22T04:53:26.338Z,23.06
2018-08-22T04:55:55.095Z,23.10
2018-08-22T04:58:23.516Z,23.09
2018-08-22T05:00:51.959Z,22.98
2018-08-22T05:03:20.392Z,22.88
2018-08-22T05:05:48.811Z,22.85
2018-08-22T05:08:17.208Z,23.09
2018-08-22T05:10:45.666Z,23.02
2018-08-22T05:13:14.411Z,22.94
2018-08-22T05:15:42.907Z,23.05
2018-08-22T05:18:11.728Z,23.00
2018-08-22T05:20:40.188Z,23.04
2018-08-22T05:23:08.772Z,23.12
2018-08-22T05:25:37.203Z,22.98
2018-08-22T05:28:05.770Z,23.14
2018-08-22T05:30:34.239Z,23.25
2018-08-22T05:33:02.674Z,22.96
2018-08-22T05:35:31.157Z,23.22
2018-08-22T05:37:59.575Z,23.31
2018-08-22T05:40:58.810Z,23.54
2018-08-22T05:43:27.523Z,23.57
2018-08-22T05:45:55.952Z,23.52
2018-08-22T05:48:24.518Z,23.67
2018-08-22T05:50:52.949Z,23.74
2018-08-22T05:53:21.378Z,24.01
2018-08-22T05:55:50.061Z,24.17
2018-08-22T05:58:18.564Z,24.08
2018-08-22T06:00:46.970Z,24.04
2018-08-22T06:03:15.774Z,24.23
2018-08-22T06:05:44.302Z,24.42
2018-08-22T06:08:12.877Z,24.42
2018-08-22T06:10:41.324Z,24.38
2018-08-22T06:13:09.956Z,24.54
2018-08-22T06:15:38.439Z,24.63
2018-08-22T06:18:06.859Z,24.78
2018-08-22T06:20:35.281Z,24.48
2018-08-22T06:23:03.828Z,24.85
2018-08-22T06:25:32.365Z,24.49
2018-08-22T06:28:00.767Z,24.55
2018-08-22T06:30:29.245Z,24.70
2018-08-22T06:32:57.664Z,25.00
2018-08-22T06:35:26.128Z,24.94
2018-08-22T06:37:54.596Z,24.78
2018-08-22T06:40:23.016Z,24.72
2018-08-22T06:42:51.440Z,24.84
2018-08-22T06:45:19.944Z,24.98
2018-08-22T06:47:48.334Z,24.86
2018-08-22T06:50:16.790Z,24.97
2018-08-22T06:52:45.538Z,24.82
2018-08-22T06:55:14.312Z,25.30
2018-08-22T06:57:42.819Z,25.21
2018-08-22T07:00:11.528Z,25.32
2018-08-22T07:02:40.051Z,25.14
2018-08-22T07:05:08.522Z,25.52
2018-08-22T07:07:36.973Z,25.63
2018-08-22T07:10:05.814Z,25.96
2018-08-22T07:12:34.252Z,26.01
2018-08-22T07:15:02.676Z,26.29
2018-08-22T07:17:31.127Z,26.21
2018-08-22T07:19:59.585Z,26.17
2018-08-22T07:22:28.005Z,26.79
2018-08-22T07:24:56.455Z,26.72
2018-08-22T07:27:24.864Z,26.97
2018-08-22T07:29:53.642Z,27.38
2018-08-22T07:32:22.090Z,26.30
2018-08-22T07:34:50.518Z,27.26
2018-08-22T07:37:19.428Z,26.80
2018-08-22T07:39:47.876Z,27.16
2018-08-22T07:42:16.323Z,26.75
2018-08-22T07:44:44.759Z,27.43
2018-08-22T07:47:13.238Z,27.61
2018-08-22T07:49:41.617Z,27.65
2018-08-22T07:52:10.179Z,27.09
2018-08-22T07:54:45.819Z,27.45
2018-08-22T07:57:15.715Z,27.75
2018-08-22T07:59:44.216Z,27.75
2018-08-22T08:02:12.851Z,27.78
2018-08-22T08:04:41.246Z,27.91
2018-08-22T08:07:09.939Z,27.99
2018-08-22T08:09:38.364Z,28.16
2018-08-22T08:12:06.829Z,28.20
2018-08-22T08:14:35.251Z,28.08
2018-08-22T08:17:03.661Z,27.93
2018-08-22T08:19:32.120Z,27.80
2018-08-22T08:22:00.526Z,28.25
2018-08-22T08:24:28.955Z,28.34
2018-08-22T08:26:57.427Z,28.05
2018-08-22T08:29:25.907Z,28.25
2018-08-22T08:31:54.345Z,28.81
2018-08-22T08:34:23.076Z,28.26
2018-08-22T08:36:51.506Z,27.74
2018-08-22T08:39:20.004Z,27.81
2018-08-22T08:41:48.540Z,28.77
2018-08-22T08:44:16.910Z,28.69
2018-08-22T08:46:45.605Z,28.90
2018-08-22T08:49:14.022Z,29.06
2018-08-22T08:51:54.051Z,28.84
2018-08-22T08:54:23.444Z,28.82
2018-08-22T08:56:52.152Z,28.61
2018-08-22T08:59:20.610Z,29.08
2018-08-22T09:01:49.000Z,29.12
2018-08-22T09:04:18.391Z,28.96
2018-08-22T09:06:47.433Z,28.92
2018-08-22T09:09:15.870Z,29.34
2018-08-22T09:11:49.080Z,28.76
2018-08-22T09:14:17.523Z,29.08
2018-08-22T09:16:45.942Z,29.86
2018-08-22T09:19:20.744Z,29.56
2018-08-22T09:21:49.435Z,29.75
2018-08-22T09:24:17.958Z,29.78
2018-08-22T09:26:46.420Z,30.20
2018-08-22T09:29:14.842Z,30.00
2018-08-22T09:31:43.288Z,30.37
2018-08-22T09:34:11.743Z,30.60
2018-08-22T09:36:40.144Z,30.83
2018-08-22T09:39:12.561Z,31.13
2018-08-22T09:41:41.260Z,31.18
2018-08-22T09:44:09.912Z,31.10
2018-08-22T09:46:39.636Z,31.03
2018-08-22T09:49:08.512Z,30.67
2018-08-22T09:51:36.973Z,31.34
2018-08-22T09:54:05.693Z,31.30
2018-08-22T09:56:34.175Z,30.68
2018-08-22T09:59:02.593Z,30.43
2018-08-22T10:01:36.182Z,30.85
2018-08-22T10:04:04.650Z,31.92
2018-08-22T10:06:38.868Z,31.57
2018-08-22T10:09:09.231Z,31.37
2018-08-22T10:11:37.895Z,31.73
2018-08-22T10:14:06.406Z,30.99
2018-08-22T10:16:34.811Z,32.00
2018-08-22T10:19:03.255Z,32.29
2018-08-22T10:21:31.696Z,33.11
2018-08-22T10:24:00.421Z,33.05
2018-08-22T10:26:29.021Z,31.81
2018-08-22T10:28:57.511Z,31.50
2018-08-22T10:31:26.417Z,31.58
2018-08-22T10:33:55.280Z,31.93
2018-08-22T10:36:23.715Z,32.57
2018-08-22T10:38:52.132Z,32.70
2018-08-22T10:41:20.588Z,32.35
2018-08-22T10:43:49.040Z,32.92
2018-08-22T10:46:17.473Z,32.79
2018-08-22T10:48:45.958Z,33.08
2018-08-22T10:51:14.431Z,32.60
2018-08-22T10:53:42.848Z,33.31
2018-08-22T10:56:11.254Z,33.38
2018-08-22T10:58:39.710Z,34.02
2018-08-22T11:01:08.271Z,32.90
2018-08-22T11:03:36.668Z,34.05
2018-08-22T11:06:05.698Z,32.93
2018-08-22T11:08:34.333Z,33.53
2018-08-22T11:11:02.800Z,34.12
2018-08-22T11:13:31.633Z,33.89
2018-08-22T11:16:00.131Z,34.14
2018-08-22T11:18:28.543Z,33.47
2018-08-22T11:21:08.011Z,34.00
2018-08-22T11:23:47.641Z,35.18
2018-08-22T11:26:27.231Z,34.74
2018-08-22T11:29:06.901Z,34.24
2018-08-22T11:31:47.307Z,34.96
2018-08-22T11:34:27.006Z,34.90
2018-08-22T11:37:05.618Z,35.67
2018-08-22T11:39:34.256Z,37.43
2018-08-22T11:42:03.399Z,35.65
2018-08-22T11:44:31.901Z,36.22
2018-08-22T11:47:00.927Z,37.03
2018-08-22T11:49:30.075Z,38.34
2018-08-22T11:51:59.120Z,36.51
2018-08-22T11:54:27.763Z,38.88
2018-08-22T11:56:56.178Z,38.42
2018-08-22T11:59:24.624Z,37.19
2018-08-22T12:01:53.314Z,36.43
2018-08-22T12:04:21.939Z,36.45
2018-08-22T12:06:50.929Z,35.42
2018-08-22T12:09:19.393Z,36.40
2018-08-22T12:11:47.875Z,36.52
2018-08-22T12:14:16.333Z,38.18
2018-08-22T12:16:44.753Z,37.31
2018-08-22T12:19:13.222Z,39.08
2018-08-22T12:21:42.438Z,38.06
2018-08-22T12:24:10.903Z,38.83
2018-08-22T12:26:39.335Z,39.76
2018-08-22T12:29:07.775Z,39.01
2018-08-22T12:31:36.254Z,38.86
2018-08-22T12:34:04.751Z,39.85
2018-08-22T12:36:33.176Z,40.06
2018-08-22T12:39:01.786Z,38.97
2018-08-22T12:41:30.498Z,39.07
2018-08-22T12:43:58.887Z,37.20
2018-08-22T12:46:27.362Z,37.39
2018-08-22T12:48:55.787Z,38.87
2018-08-22T12:51:24.245Z,38.75
2018-08-22T12:53:52.667Z,39.78
2018-08-22T12:56:21.092Z,39.38
2018-08-22T12:58:49.505Z,37.86
2018-08-22T13:01:17.956Z,38.90
2018-08-22T13:03:47.208Z,40.55
2018-08-22T13:06:15.651Z,41.66
2018-08-22T13:08:44.067Z,40.73
2018-08-22T13:11:12.550Z,39.48
2018-08-22T13:13:40.903Z,40.22
2018-08-22T13:16:09.329Z,39.85
2018-08-22T13:18:37.740Z,40.32
2018-08-22T13:21:06.151Z,41.76
2018-08-22T13:23:34.788Z,40.10
2018-08-22T13:26:03.213Z,39.56
2018-08-22T13:28:31.611Z,42.01
2018-08-22T13:30:59.995Z,42.35
2018-08-22T13:33:28.427Z,40.78
2018-08-22T13:35:56.831Z,41.01
2018-08-22T13:38:25.255Z,44.18
2018-08-22T13:40:53.747Z,42.92
2018-08-22T13:43:22.164Z,44.50
2018-08-22T13:45:50.595Z,44.55
2018-08-22T13:48:19.025Z,43.42
2018-08-22T13:50:47.487Z,44.16
2018-08-22T13:53:15.984Z,42.57
2018-08-22T13:55:44.443Z,41.43
2018-08-22T13:58:13.031Z,43.26
2018-08-22T14:00:41.456Z,42.82
2018-08-22T14:03:09.917Z,43.87
2018-08-22T14:05:38.857Z,44.06
2018-08-22T14:08:07.291Z,42.08
2018-08-22T14:10:36.079Z,43.31
2018-08-22T14:13:04.547Z,42.93
2018-08-22T14:15:33.004Z,44.07
2018-08-22T14:18:01.412Z,42.63
2018-08-22T14:20:30.030Z,40.39
2018-08-22T14:22:58.545Z,42.78
2018-08-22T14:25:27.282Z,41.02
2018-08-22T14:27:55.940Z,40.60
2018-08-22T14:30:24.383Z,40.02
2018-08-22T14:32:53.044Z,39.21
2018-08-22T14:35:21.480Z,39.22
2018-08-22T14:37:49.896Z,39.47
2018-08-22T14:40:18.348Z,40.64
2018-08-22T14:42:46.778Z,41.61
2018-08-22T14:45:15.219Z,40.87
2018-08-22T14:47:43.621Z,39.85
2018-08-22T14:50:12.071Z,39.11
2018-08-22T14:52:40.678Z,41.43
2018-08-22T14:55:09.167Z,40.85
2018-08-22T14:57:37.588Z,42.49
2018-08-22T15:00:06.433Z,42.91
2018-08-22T15:02:35.136Z,42.99
2018-08-22T15:05:03.457Z,41.52
2018-08-22T15:07:31.895Z,43.13
2018-08-22T15:10:00.529Z,43.63
2018-08-22T15:12:28.959Z,41.07
2018-08-22T15:14:57.514Z,41.34
2018-08-22T15:17:25.928Z,41.84
2018-08-22T15:19:54.319Z,43.11
2018-08-22T15:22:22.991Z,43.14
2018-08-22T15:24:51.669Z,43.93
2018-08-22T15:27:20.097Z,43.66
2018-08-22T15:29:48.605Z,43.53
2018-08-22T15:32:17.004Z,42.21
2018-08-22T15:34:49.458Z,42.77
2018-08-22T15:37:18.185Z,40.65
2018-08-22T15:39:46.573Z,41.70
2018-08-22T15:42:14.979Z,41.96
2018-08-22T15:44:43.456Z,42.70
2018-08-22T15:47:12.625Z,42.06
2018-08-22T15:49:41.223Z,42.35
2018-08-22T15:52:10.001Z,41.94
2018-08-22T15:54:38.408Z,41.98
2018-08-22T15:57:07.057Z,42.15
2018-08-22T15:59:35.471Z,42.39
2018-08-22T16:02:03.896Z,42.11
2018-08-22T16:04:45.343Z,43.65
2018-08-22T16:07:13.765Z,40.36
2018-08-22T16:09:42.684Z,40.51
2018-08-22T16:12:11.136Z,39.94
2018-08-22T16:14:39.661Z,41.12
2018-08-22T16:17:08.025Z,41.11
2018-08-22T16:19:36.450Z,41.64
2018-08-22T16:22:05.474Z,40.49
2018-08-22T16:24:34.055Z,40.75
2018-08-22T16:27:02.487Z,40.86
2018-08-22T16:29:30.935Z,41.68
2018-08-22T16:31:59.517Z,41.00
2018-08-22T16:34:27.963Z,40.87
2018-08-22T16:36:56.557Z,41.67
2018-08-22T16:39:38.159Z,41.07
2018-08-22T16:42:07.440Z,40.85
2018-08-22T16:44:36.113Z,41.59
2018-08-22T16:47:04.810Z,41.43
2018-08-22T16:49:33.351Z,40.09
2018-08-22T16:52:01.736Z,40.62
2018-08-22T16:54:30.176Z,40.61
2018-08-22T16:56:58.564Z,41.01
2018-08-22T16:59:27.026Z,41.12
2018-08-22T17:01:55.798Z,41.43
2018-08-22T17:04:24.232Z,40.16
2018-08-22T17:06:52.737Z,39.72
2018-08-22T17:09:21.140Z,40.27
2018-08-22T17:11:49.876Z,39.96
2018-08-22T17:14:18.305Z,40.33
2018-08-22T17:16:46.948Z,39.47
2018-08-22T17:19:15.382Z,38.96
2018-08-22T17:21:43.851Z,39.48
2018-08-22T17:24:12.552Z,38.89
2018-08-22T17:26:40.987Z,38.67
2018-08-22T17:29:09.403Z,39.11
2018-08-22T17:31:38.413Z,38.52
2018-08-22T17:34:07.023Z,38.29
2018-08-22T17:36:35.436Z,38.40
2018-08-22T17:39:04.329Z,37.88
2018-08-22T17:41:32.824Z,37.65
2018-08-22T17:44:12.349Z,37.25
2018-08-22T17:46:48.675Z,36.55
2018-08-22T17:49:17.567Z,35.96
2018-08-22T17:52:05.387Z,35.44
2018-08-22T17:54:34.040Z,35.16
2018-08-22T17:57:12.553Z,34.79
2018-08-22T17:59:42.011Z,34.48
2018-08-22T18:02:10.424Z,33.94
2018-08-22T18:04:50.211Z,33.88
2018-08-22T18:07:18.639Z,33.61
2018-08-22T18:09:48.627Z,33.49
2018-08-22T18:12:17.860Z,33.13
2018-08-22T18:14:46.780Z,32.78
2018-08-22T18:17:15.332Z,32.30
2018-08-22T18:19:43.909Z,32.26
2018-08-22T18:22:12.376Z,32.23
2018-08-22T18:24:46.115Z,31.97
2018-08-22T18:27:16.353Z,31.84
2018-08-22T18:29:46.235Z,31.78
2018-08-22T18:32:15.214Z,31.95
2018-08-22T18:34:58.642Z,31.55
2018-08-22T18:37:28.815Z,31.14
2018-08-22T18:40:10.168Z,30.92
2018-08-22T18:42:39.393Z,30.75
2018-08-22T18:45:08.567Z,30.54
2018-08-22T18:47:37.668Z,30.32
2018-08-22T18:50:06.577Z,30.46
2018-08-22T18:52:35.030Z,30.36
2018-08-22T18:55:03.769Z,30.31
2018-08-22T18:57:32.501Z,30.31
2018-08-22T19:00:04.436Z,30.16
2018-08-22T19:02:33.334Z,29.93
2018-08-22T19:05:17.271Z,29.88
2018-08-22T19:07:58.032Z,29.83
2018-08-22T19:10:57.590Z,29.69
2018-08-22T19:13:26.925Z,29.50
2018-08-22T19:16:01.438Z,29.49
2018-08-22T19:18:30.205Z,29.42
2018-08-22T19:21:00.693Z,29.44
2018-08-22T19:23:29.679Z,29.40
2018-08-22T19:25:59.055Z,29.34
2018-08-22T19:28:27.807Z,29.33
2018-08-22T19:30:56.255Z,29.24
2018-08-22T19:33:27.193Z,29.35
2018-08-22T19:35:56.098Z,29.24
2018-08-22T19:38:27.980Z,29.36
2018-08-22T19:40:57.603Z,29.54
2018-08-22T19:43:26.416Z,29.45
2018-08-22T19:45:54.804Z,29.63
2018-08-22T19:48:25.044Z,29.33
2018-08-22T19:50:53.859Z,29.42
2018-08-22T19:53:22.304Z,29.19
2018-08-22T19:55:50.747Z,29.35
2018-08-22T19:58:28.347Z,29.65
2018-08-22T20:00:58.280Z,29.41
2018-08-22T20:03:31.035Z,29.19
2018-08-22T20:05:59.471Z,29.14
2018-08-22T20:08:42.243Z,29.16
2018-08-22T20:11:11.071Z,28.96
2018-08-22T20:13:53.048Z,28.87
2018-08-22T20:16:22.496Z,29.16
2018-08-22T20:18:53.836Z,29.00
2018-08-22T20:21:27.627Z,29.18
2018-08-22T20:23:56.544Z,29.21
2018-08-22T20:26:25.788Z,29.16
2018-08-22T20:28:55.963Z,29.04
2018-08-22T20:31:24.784Z,28.89
2018-08-22T20:34:00.552Z,29.04
2018-08-22T20:36:29.352Z,29.00
2018-08-22T20:39:00.064Z,28.82
2018-08-22T20:41:28.488Z,28.63
2018-08-22T20:43:57.206Z,28.73
2018-08-22T20:46:25.632Z,28.64
2018-08-22T20:48:55.027Z,28.34
2018-08-22T20:51:23.628Z,27.87
2018-08-22T20:54:02.161Z,28.21
2018-08-22T20:56:31.639Z,28.15
2018-08-22T20:59:00.064Z,28.19
2018-08-22T21:01:28.780Z,28.12
2018-08-22T21:03:57.192Z,27.98
2018-08-22T21:06:25.605Z,28.04
2018-08-22T21:08:54.072Z,28.07
2018-08-22T21:11:22.548Z,28.02
2018-08-22T21:13:50.981Z,27.90
2018-08-22T21:16:19.380Z,27.89
2018-08-22T21:18:47.808Z,27.87
2018-08-22T21:21:21.363Z,27.79
2018-08-22T21:23:49.994Z,27.75
2018-08-22T21:26:32.788Z,27.72
2018-08-22T21:29:01.254Z,27.70
2018-08-22T21:31:29.716Z,27.78
2018-08-22T21:33:58.243Z,27.76
2018-08-22T21:36:27.135Z,27.64
2018-08-22T21:38:55.580Z,27.65
2018-08-22T21:41:24.066Z,27.57
2018-08-22T21:43:52.745Z,27.45
2018-08-22T21:46:21.192Z,27.48
2018-08-22T21:48:50.045Z,27.49
2018-08-22T21:51:20.377Z,27.52
2018-08-22T21:53:48.787Z,27.60
2018-08-22T21:56:17.345Z,27.41
2018-08-22T21:58:45.839Z,27.41
2018-08-22T22:01:14.284Z,27.44
2018-08-22T22:03:42.738Z,27.40
2018-08-22T22:06:11.139Z,27.28
2018-08-22T22:08:46.727Z,27.35
2018-08-22T22:11:15.151Z,27.44
2018-08-22T22:13:43.956Z,27.38
2018-08-22T22:16:12.417Z,27.41
2018-08-22T22:18:40.811Z,27.30
2018-08-22T22:21:12.365Z,27.20
2018-08-22T22:23:47.307Z,27.11
2018-08-22T22:26:17.325Z,27.09
2018-08-22T22:28:45.742Z,27.05
2018-08-22T22:31:16.264Z,26.98
2018-08-22T22:33:48.692Z,26.93
2018-08-22T22:36:17.172Z,26.91
2018-08-22T22:38:45.754Z,26.92
2018-08-22T22:41:14.369Z,26.69
2018-08-22T22:43:42.830Z,26.74
2018-08-22T22:46:11.499Z,26.63
2018-08-22T22:48:41.490Z,26.63
2018-08-22T22:51:10.652Z,26.76
2018-08-22T22:53:39.143Z,26.57
2018-08-22T22:56:08.010Z,26.44
2018-08-22T22:58:37.343Z,26.44
2018-08-22T23:01:06.937Z,26.33
2018-08-22T23:03:35.445Z,26.25
2018-08-22T23:06:03.957Z,26.12
2018-08-22T23:08:32.396Z,26.04
2018-08-22T23:11:01.133Z,26.02
2018-08-22T23:13:30.253Z,25.97
2018-08-22T23:15:58.700Z,25.97
2018-08-22T23:18:27.271Z,25.95
2018-08-22T23:20:55.706Z,26.00
2018-08-22T23:23:33.311Z,25.85
2018-08-22T23:26:09.376Z,25.85
2018-08-22T23:28:37.860Z,25.86
2018-08-22T23:31:06.299Z,25.73
2018-08-22T23:33:34.765Z,25.70
2018-08-22T23:36:03.232Z,25.78
2018-08-22T23:38:33.100Z,25.82
2018-08-22T23:41:02.256Z,25.75
2018-08-22T23:44:06.112Z,25.59
2018-08-22T23:46:34.620Z,25.73
2018-08-22T23:49:03.102Z,25.58
2018-08-22T23:51:31.571Z,25.54
2018-08-22T23:54:00.875Z,25.41
2018-08-22T23:56:30.356Z,25.34
2018-08-22T23:58:59.328Z,25.05
